createdAt,value
2022-10-29T00:02:11.063Z,84.24
2022-10-29T00:07:13.200Z,83.90
2022-10-29T00:12:13.968Z,83.83
2022-10-29T00:17:15.891Z,84.27
2022-10-29T00:22:18.072Z,84.10
2022-10-29T00:27:18.837Z,83.97
2022-10-29T00:32:19.781Z,83.90
2022-10-29T00:37:21.956Z,84.38
2022-10-29T00:42:22.724Z,84.93
2022-10-29T00:47:27.366Z,83.97
2022-10-29T00:52:33.273Z,84.63
2022-10-29T00:57:40.512Z,84.37
2022-10-29T01:02:42.214Z,84.64
2022-10-29T01:07:44.476Z,84.51
2022-10-29T01:13:09.976Z,84.47
2022-10-29T01:18:18.299Z,84.52
2022-10-29T01:24:06.293Z,84.75
2022-10-29T01:29:21.271Z,84.88
2022-10-29T01:34:29.957Z,84.00
2022-10-29T01:39:38.787Z,84.19
2022-10-29T01:44:46.506Z,84.10
2022-10-29T01:49:52.563Z,83.78
2022-10-29T01:54:53.305Z,83.04
2022-10-29T01:59:56.342Z,83.18
2022-10-29T02:05:12.360Z,82.66
2022-10-29T02:10:20.421Z,82.98
2022-10-29T02:15:26.426Z,83.30
2022-10-29T02:20:28.677Z,83.46
2022-10-29T02:25:29.534Z,83.21
2022-10-29T02:30:33.096Z,82.80
2022-10-29T02:35:35.244Z,82.92
2022-10-29T02:40:36.024Z,83.12
2022-10-29T02:45:36.826Z,83.41
2022-10-29T02:50:38.942Z,82.69
2022-10-29T02:55:39.726Z,82.65
2022-10-29T03:00:40.533Z,83.35
2022-10-29T03:05:46.570Z,83.01
2022-10-29T03:10:49.867Z,82.99
2022-10-29T03:15:50.645Z,84.22
2022-10-29T03:20:52.945Z,83.13
2022-10-29T03:25:56.034Z,83.37
2022-10-29T03:30:57.808Z,83.52
2022-10-29T03:36:02.151Z,84.10
2022-10-29T03:41:08.513Z,84.26
2022-10-29T03:46:09.436Z,84.41
2022-10-29T03:51:11.997Z,84.92
2022-10-29T03:56:12.809Z,84.49
2022-10-29T04:01:13.648Z,84.30
2022-10-29T04:06:18.275Z,85.48
2022-10-29T04:11:19.192Z,85.27
2022-10-29T04:16:19.996Z,85.13
2022-10-29T04:32:05.255Z,86.10
2022-10-29T04:37:07.928Z,87.02
2022-10-29T04:42:08.692Z,85.65
2022-10-29T04:47:09.462Z,86.22
2022-10-29T04:52:11.582Z,86.29
2022-10-29T04:57:12.429Z,86.94
2022-10-29T05:02:13.179Z,86.41
2022-10-29T05:07:15.371Z,86.75
2022-10-29T05:12:16.172Z,86.65
2022-10-29T05:17:17.139Z,86.93
2022-10-29T05:22:19.400Z,86.63
2022-10-29T05:27:20.192Z,87.50
2022-10-29T05:32:21.009Z,86.65
2022-10-29T05:37:25.478Z,86.31
2022-10-29T05:42:26.323Z,85.65
2022-10-29T05:47:27.123Z,85.33
2022-10-29T05:52:29.216Z,85.53
2022-10-29T05:57:30.380Z,85.43
2022-10-29T06:02:31.369Z,85.96
2022-10-29T06:07:33.656Z,86.01
2022-10-29T06:12:35.093Z,85.24
2022-10-29T06:17:35.947Z,85.81
2022-10-29T06:22:38.244Z,85.37
2022-10-29T06:27:39.142Z,85.65
2022-10-29T06:32:39.935Z,85.10
2022-10-29T06:37:42.069Z,85.12
2022-10-29T06:42:42.876Z,84.26
2022-10-29T06:47:45.191Z,86.08
2022-10-29T06:52:55.413Z,84.77
2022-10-29T06:58:00.504Z,83.88
2022-10-29T07:03:01.425Z,83.93
2022-10-29T07:08:06.236Z,82.62
2022-10-29T07:13:07.017Z,83.22
2022-10-29T07:18:10.590Z,83.23
2022-10-29T07:23:13.637Z,82.78
2022-10-29T07:28:16.283Z,80.65
2022-10-29T07:33:17.642Z,81.05
2022-10-29T07:38:19.873Z,81.86
2022-10-29T07:43:21.843Z,81.51
2022-10-29T07:48:23.765Z,80.48
2022-10-29T07:53:26.072Z,80.49
2022-10-29T07:58:27.479Z,79.57
2022-10-29T08:03:28.333Z,79.27
2022-10-29T08:08:30.961Z,78.86
2022-10-29T08:13:32.231Z,78.94
2022-10-29T08:18:33.005Z,78.52
2022-10-29T08:23:35.207Z,77.89
2022-10-29T08:28:36.077Z,77.82
2022-10-29T08:33:37.134Z,76.70
2022-10-29T08:38:40.287Z,76.19
2022-10-29T08:44:16.560Z,75.40
2022-10-29T08:49:20.837Z,73.97
2022-10-29T08:54:31.025Z,73.04
2022-10-29T08:59:36.735Z,71.68
2022-10-29T09:04:39.256Z,70.88
2022-10-29T09:09:45.578Z,69.92
2022-10-29T09:15:04.408Z,70.05
2022-10-29T09:20:24.357Z,69.89
2022-10-29T09:25:31.480Z,68.70
2022-10-29T09:30:32.651Z,68.58
2022-10-29T09:35:40.106Z,68.69
2022-10-29T09:40:43.870Z,68.33
2022-10-29T09:45:49.270Z,69.02
2022-10-29T09:51:00.796Z,69.07
2022-10-29T09:56:03.204Z,68.76
2022-10-29T10:01:04.048Z,68.57
2022-10-29T10:06:07.266Z,68.21
2022-10-29T10:11:19.644Z,66.58
2022-10-29T10:16:25.152Z,65.36
2022-10-29T10:21:27.620Z,65.64
2022-10-29T10:26:32.621Z,65.81
2022-10-29T10:31:33.574Z,65.08
2022-10-29T10:36:39.655Z,65.20
2022-10-29T10:41:44.286Z,64.35
2022-10-29T10:46:46.273Z,64.93
2022-10-29T10:51:51.712Z,64.77
2022-10-29T10:57:00.327Z,62.18
2022-10-29T11:02:03.076Z,62.36
2022-10-29T11:07:07.292Z,62.45
2022-10-29T11:12:14.748Z,61.35
2022-10-29T11:17:27.984Z,61.42
2022-10-29T11:22:34.861Z,61.04
2022-10-29T11:27:46.353Z,61.39
2022-10-29T11:32:57.851Z,61.24
2022-10-29T11:38:04.163Z,61.58
2022-10-29T11:43:12.058Z,61.48
2022-10-29T11:48:22.063Z,61.07
2022-10-29T11:53:34.160Z,60.92
2022-10-29T11:58:46.075Z,61.23
2022-10-29T12:04:14.937Z,60.83
2022-10-29T12:09:43.205Z,60.23
2022-10-29T12:14:50.096Z,60.56
2022-10-29T12:19:59.295Z,60.89
2022-10-29T12:25:15.192Z,60.99
2022-10-29T12:30:20.030Z,62.26
2022-10-29T12:35:28.722Z,62.59
2022-10-29T12:40:34.365Z,62.73
2022-10-29T12:45:59.585Z,62.04
2022-10-29T12:51:10.879Z,62.21
2022-10-29T12:56:16.398Z,62.24
2022-10-29T13:02:10.352Z,62.35
2022-10-29T13:07:24.604Z,62.70
2022-10-29T13:12:57.812Z,62.71
2022-10-29T13:18:05.806Z,62.57
2022-10-29T13:23:33.008Z,62.77
2022-10-29T13:28:52.071Z,62.67
2022-10-29T13:33:54.409Z,62.58
2022-10-29T13:39:07.455Z,63.68
2022-10-29T13:44:12.528Z,63.77
2022-10-29T13:49:19.205Z,64.54
2022-10-29T13:54:32.029Z,65.50
2022-10-29T13:59:40.935Z,66.51
2022-10-29T14:04:47.603Z,66.97
2022-10-29T14:09:52.911Z,67.77
2022-10-29T14:15:01.670Z,68.04
2022-10-29T14:20:03.930Z,68.02
2022-10-29T14:25:28.399Z,68.49
2022-10-29T14:30:29.354Z,68.30
2022-10-29T14:35:31.661Z,68.04
2022-10-29T14:40:35.751Z,68.20
2022-10-29T14:45:36.719Z,68.68
2022-10-29T14:50:39.142Z,68.71
2022-10-29T14:55:46.367Z,69.10
2022-10-29T15:00:55.183Z,68.67
2022-10-29T15:06:14.594Z,69.23
2022-10-29T15:11:36.747Z,69.12
2022-10-29T15:16:39.877Z,70.70
2022-10-29T15:21:45.716Z,70.65
2022-10-29T15:26:50.432Z,71.25
2022-10-29T15:31:53.630Z,71.87
2022-10-29T15:36:57.712Z,72.72
2022-10-29T15:42:00.827Z,73.19
2022-10-29T15:47:03.255Z,73.24
2022-10-29T15:52:05.734Z,73.58
2022-10-29T15:57:07.006Z,73.83
2022-10-29T16:02:11.963Z,74.29
2022-10-29T16:07:15.056Z,74.53
2022-10-29T16:12:16.022Z,75.42
2022-10-29T16:17:18.494Z,75.80
2022-10-29T16:22:29.547Z,76.00
2022-10-29T16:27:30.368Z,76.65
2022-10-29T16:32:31.372Z,77.03
2022-10-29T16:37:33.502Z,77.39
2022-10-29T16:42:36.296Z,78.00
2022-10-29T16:47:37.173Z,77.91
2022-10-29T16:52:39.383Z,77.77
2022-10-29T16:57:40.685Z,77.74
2022-10-29T17:02:44.567Z,77.63
2022-10-29T17:07:46.798Z,77.60
2022-10-29T17:12:48.368Z,77.88
2022-10-29T17:17:49.161Z,77.85
2022-10-29T17:22:51.383Z,77.68
2022-10-29T17:27:52.189Z,77.35
2022-10-29T17:32:53.000Z,77.26
2022-10-29T17:37:55.220Z,77.05
2022-10-29T17:42:56.321Z,77.60
2022-10-29T17:47:58.362Z,78.02
2022-10-29T17:53:00.742Z,77.79
2022-10-29T17:58:01.596Z,78.22
2022-10-29T18:03:02.577Z,78.52
2022-10-29T18:08:04.963Z,78.21
2022-10-29T18:13:05.764Z,78.49
2022-10-29T18:18:06.650Z,78.60
2022-10-29T18:23:10.932Z,78.65
2022-10-29T18:28:11.839Z,78.75
2022-10-29T18:33:12.730Z,79.34
2022-10-29T18:38:15.075Z,79.31
2022-10-29T18:43:15.844Z,79.76
2022-10-29T18:48:16.760Z,79.52
2022-10-29T18:53:19.602Z,79.91
2022-10-29T18:58:21.186Z,79.68
2022-10-29T19:03:22.216Z,80.10
2022-10-29T19:08:24.470Z,80.66
2022-10-29T19:13:25.471Z,80.72
2022-10-29T19:18:26.288Z,81.05
2022-10-29T19:23:28.413Z,81.25
2022-10-29T19:28:30.559Z,81.33
2022-10-29T19:33:31.381Z,81.17
2022-10-29T19:38:33.874Z,81.38
2022-10-29T19:43:34.699Z,82.22
2022-10-29T19:48:35.822Z,82.37
2022-10-29T19:53:41.636Z,82.99
2022-10-29T19:58:43.065Z,83.08
2022-10-29T20:03:44.425Z,83.10
2022-10-29T20:08:46.822Z,83.21
2022-10-29T20:13:47.588Z,83.40
2022-10-29T20:18:49.759Z,83.61
2022-10-29T20:23:51.896Z,84.00
2022-10-29T20:28:52.736Z,83.80
2022-10-29T20:33:55.161Z,84.10
2022-10-29T20:38:57.681Z,83.96
2022-10-29T20:44:01.126Z,83.84
2022-10-29T20:49:02.014Z,83.95
2022-10-29T20:54:04.317Z,84.78
2022-10-29T20:59:05.105Z,84.14
2022-10-29T21:04:06.093Z,84.87
2022-10-29T21:09:08.239Z,84.77
2022-10-29T21:14:09.028Z,84.61
2022-10-29T21:19:09.855Z,84.85
2022-10-29T21:24:12.096Z,84.98
2022-10-29T21:29:12.924Z,84.88
2022-10-29T21:34:13.807Z,85.58
2022-10-29T21:39:15.964Z,85.63
2022-10-29T21:44:16.812Z,85.44
2022-10-29T21:49:17.605Z,85.26
2022-10-29T21:54:21.873Z,85.38
2022-10-29T21:59:25.280Z,85.68
2022-10-29T22:04:26.150Z,85.40
2022-10-29T22:09:28.316Z,85.98
2022-10-29T22:14:29.168Z,86.86
2022-10-29T22:19:29.930Z,86.28
2022-10-29T22:24:32.195Z,86.31
2022-10-29T22:29:32.993Z,86.03
2022-10-29T22:34:33.767Z,85.67
2022-10-29T22:39:35.912Z,86.14
2022-10-29T22:44:36.675Z,86.53
2022-10-29T22:49:37.431Z,86.46
2022-10-29T22:54:39.593Z,86.27
2022-10-29T22:59:40.360Z,86.64
2022-10-29T23:04:41.209Z,86.81
2022-10-29T23:09:43.339Z,87.19
2022-10-29T23:14:44.101Z,87.07
2022-10-29T23:19:44.894Z,86.78
2022-10-29T23:24:47.033Z,87.12
2022-10-29T23:29:47.848Z,87.37
2022-10-29T23:34:49.952Z,86.96
2022-10-29T23:39:52.075Z,87.21
2022-10-29T23:44:52.911Z,85.98
2022-10-29T23:49:53.697Z,85.84
2022-10-29T23:54:55.814Z,86.23
2022-10-29T23:59:56.572Z,86.41
